Time;durP1;ratioP1;P1;durP2;ratioP2;P2;SDS_P1;SDS_P2;PMS_P1;PMS_P2;Temp;Humidity;BMP_temperature;BMP_pressure;BME280_temperature;BME280_humidity;BME280_pressure;Samples;Min_cycle;Max_cycle;Signal;HPM_P1;HPM_P2
2023/03/04 00:02:20;;;;;;;19.40;4.68;;;;;;;4.58;79.92;102604.16;5112084;28;20030;-56
2023/03/04 00:04:45;;;;;;;17.00;3.90;;;;;;;4.56;79.95;102604.22;5113582;27;20031;-56
2023/03/04 00:07:15;;;;;;;19.25;4.38;;;;;;;4.56;79.63;102606.84;5112406;28;20053;-55
2023/03/04 00:09:41;;;;;;;18.80;3.90;;;;;;;4.55;79.58;102607.75;5112132;27;20044;-56
2023/03/04 00:12:07;;;;;;;17.35;4.30;;;;;;;4.57;79.94;102607.72;5105232;28;20063;-57
2023/03/04 00:14:32;;;;;;;16.20;4.32;;;;;;;4.56;80.41;102609.50;5112508;28;20430;-56
2023/03/04 00:16:58;;;;;;;18.80;4.47;;;;;;;4.55;80.34;102607.75;5111964;28;20099;-57
2023/03/04 00:19:23;;;;;;;17.13;3.97;;;;;;;4.55;80.66;102606.88;5111539;27;20028;-56
2023/03/04 00:21:48;;;;;;;17.90;3.95;;;;;;;4.55;80.40;102599.00;5112629;27;20058;-56
2023/03/04 00:24:14;;;;;;;17.77;3.72;;;;;;;4.54;80.52;102595.47;5111936;28;20389;-53
2023/03/04 00:26:39;;;;;;;17.48;4.43;;;;;;;4.54;80.68;102592.00;5112419;28;20026;-56
2023/03/04 00:29:04;;;;;;;20.65;4.43;;;;;;;4.52;80.35;102588.53;5101615;27;20040;-57
2023/03/04 00:31:29;;;;;;;18.95;4.05;;;;;;;4.53;80.21;102591.13;5112167;27;20049;-57
2023/03/04 00:33:55;;;;;;;16.88;3.75;;;;;;;4.53;80.06;102593.75;5113141;27;20027;-56
2023/03/04 00:36:20;;;;;;;21.30;4.13;;;;;;;4.53;80.21;102592.88;5112242;27;20023;-56
2023/03/04 00:38:45;;;;;;;18.55;4.15;;;;;;;4.51;80.37;102592.91;5110547;27;20028;-56
2023/03/04 00:41:11;;;;;;;21.92;4.10;;;;;;;4.52;80.37;102596.44;5111971;27;20130;-56
2023/03/04 00:43:36;;;;;;;17.88;3.92;;;;;;;4.52;80.79;102596.44;5112110;27;20151;-55
2023/03/04 00:46:01;;;;;;;17.48;4.13;;;;;;;4.52;80.80;102593.78;5111496;28;20031;-57
2023/03/04 00:48:26;;;;;;;18.05;4.40;;;;;;;4.52;80.79;102593.78;5111548;27;20031;-57
2023/03/04 00:50:52;;;;;;;17.00;3.80;;;;;;;4.52;80.84;102589.38;5112275;27;20077;-57
2023/03/04 00:53:18;;;;;;;16.90;4.53;;;;;;;4.51;81.10;102595.53;5107306;27;20537;-57
2023/03/04 00:55:43;;;;;;;22.80;4.45;;;;;;;4.52;80.69;102591.16;5111478;28;20098;-58
2023/03/04 00:58:09;;;;;;;16.58;4.45;;;;;;;4.53;81.01;102592.88;5113393;27;20024;-53
2023/03/04 01:00:34;;;;;;;17.77;4.15;;;;;;;4.52;81.22;102593.78;5100082;28;20028;-53
2023/03/04 01:02:59;;;;;;;21.15;4.00;;;;;;;4.53;81.46;102595.50;5103737;28;20055;-55
2023/03/04 01:05:25;;;;;;;24.17;4.05;;;;;;;4.52;81.27;102594.66;5111076;28;20033;-53
2023/03/04 01:07:50;;;;;;;18.63;4.25;;;;;;;4.52;81.55;102602.53;5111907;28;20032;-56
2023/03/04 01:10:16;;;;;;;18.67;4.22;;;;;;;4.51;81.50;102595.53;5114239;27;20027;-56
2023/03/04 01:12:41;;;;;;;16.52;4.40;;;;;;;4.52;81.55;102599.06;5109233;28;20139;-56
2023/03/04 01:15:09;;;;;;;20.98;4.38;;;;;;;4.51;81.25;102597.31;5111163;28;20019;-52
2023/03/04 01:17:35;;;;;;;21.08;4.10;;;;;;;4.51;81.45;102597.31;5111496;28;20514;-56
2023/03/04 01:20:00;;;;;;;19.50;3.97;;;;;;;4.50;81.70;102598.22;5112555;27;20115;-55
2023/03/04 01:22:26;;;;;;;17.63;3.65;;;;;;;4.51;81.42;102600.81;5111134;28;20115;-56
2023/03/04 01:24:51;;;;;;;16.75;3.50;;;;;;;4.51;81.41;102599.94;5113036;28;20023;-55
2023/03/04 01:27:16;;;;;;;20.58;4.30;;;;;;;4.50;81.17;102591.19;5110762;28;20031;-54
2023/03/04 01:29:41;;;;;;;17.83;4.22;;;;;;;4.52;81.32;102599.91;5110844;28;20027;-57
2023/03/04 01:32:07;;;;;;;18.55;3.85;;;;;;;4.51;81.18;102590.28;5111595;28;20035;-57
2023/03/04 01:34:32;;;;;;;18.15;3.90;;;;;;;4.50;81.45;102587.72;5115688;27;20485;-55
2023/03/04 01:36:57;;;;;;;20.35;3.80;;;;;;;4.51;81.53;102595.53;5103942;28;20478;-56
2023/03/04 01:39:23;;;;;;;19.50;3.67;;;;;;;4.49;81.64;102586.81;5113262;28;20039;-57
2023/03/04 01:41:48;;;;;;;21.63;3.88;;;;;;;4.51;81.78;102581.53;5109948;28;20146;-57
2023/03/04 01:44:14;;;;;;;13.50;3.67;;;;;;;4.51;81.87;102576.25;5109119;28;20032;-55
2023/03/04 01:46:45;;;;;;;14.68;3.20;;;;;;;4.51;81.62;102582.38;5112285;28;20043;-54
2023/03/04 01:49:13;;;;;;;19.48;3.90;;;;;;;4.49;81.68;102576.31;5111616;28;20438;-56
2023/03/04 01:51:41;;;;;;;17.90;3.80;;;;;;;4.49;81.75;102568.41;5111491;28;20108;-55
2023/03/04 01:54:07;;;;;;;22.30;3.60;;;;;;;4.51;81.92;102569.22;5112330;28;20110;-56
2023/03/04 01:56:38;;;;;;;16.50;3.50;;;;;;;4.51;81.73;102566.59;5111686;28;20370;-57
2023/03/04 01:59:15;;;;;;;18.08;3.47;;;;;;;4.50;81.57;102557.00;5112552;28;20107;-56
2023/03/04 02:01:44;;;;;;;16.10;3.03;;;;;;;4.50;81.85;102556.13;5110141;28;20019;-57
2023/03/04 02:04:10;;;;;;;21.38;3.53;;;;;;;4.51;81.89;102557.84;5114422;28;20028;-56
2023/03/04 02:06:38;;;;;;;20.38;3.65;;;;;;;4.50;81.92;102550.88;5114490;28;20032;-57
2023/03/04 02:09:05;;;;;;;20.30;3.20;;;;;;;4.50;81.86;102553.50;5112275;28;20023;-56
2023/03/04 02:11:31;;;;;;;14.70;3.10;;;;;;;4.49;81.77;102552.63;5111510;28;20062;-54
2023/03/04 02:13:57;;;;;;;16.38;3.40;;;;;;;4.49;82.50;102543.88;5111699;28;20063;-57
2023/03/04 02:16:22;;;;;;;15.32;3.00;;;;;;;4.49;82.21;102543.88;5114942;28;20377;-55
2023/03/04 02:18:48;;;;;;;19.80;3.17;;;;;;;4.50;82.29;102545.63;5095668;28;20024;-57
2023/03/04 02:21:28;;;;;;;14.15;3.22;;;;;;;4.50;82.39;102542.97;5111817;28;20020;-56
2023/03/04 02:24:18;;;;;;;21.63;3.80;;;;;;;4.49;81.38;102539.47;5111618;28;20024;-56
2023/03/04 02:26:45;;;;;;;18.05;3.05;;;;;;;4.47;81.22;102540.41;5111806;28;20072;-55
2023/03/04 02:29:13;;;;;;;13.18;2.97;;;;;;;4.48;81.52;102535.13;5112198;28;20086;-54
2023/03/04 02:31:42;;;;;;;13.88;3.58;;;;;;;4.47;81.49;102540.41;5111061;28;20027;-54
2023/03/04 02:34:13;;;;;;;19.58;3.53;;;;;;;4.47;81.77;102541.28;5111811;28;20036;-56
2023/03/04 02:36:39;;;;;;;17.02;2.83;;;;;;;4.47;81.93;102538.66;5110923;28;20470;-56
2023/03/04 02:39:21;;;;;;;20.55;4.72;;;;;;;4.46;81.66;102534.28;5110263;28;20024;-55
2023/03/04 02:41:47;;;;;;;18.30;3.35;;;;;;;4.45;81.86;102535.19;5111668;27;20069;-57
2023/03/04 02:44:23;;;;;;;9.02;2.90;;;;;;;4.45;82.17;102536.03;5112694;27;20027;-56
2023/03/04 02:46:49;;;;;;;10.40;2.70;;;;;;;4.44;82.28;102534.31;5116054;27;20031;-57
2023/03/04 02:49:15;;;;;;;11.60;2.53;;;;;;;4.45;82.40;102522.03;5115564;27;20109;-57
2023/03/04 02:51:40;;;;;;;15.70;3.38;;;;;;;4.45;82.15;102522.03;5115507;27;20045;-57
2023/03/04 02:54:16;;;;;;;14.82;2.88;;;;;;;4.48;82.50;102524.59;5115679;27;20122;-56
2023/03/04 02:56:47;;;;;;;15.18;2.85;;;;;;;4.47;82.70;102525.50;5114117;28;20539;-56
2023/03/04 02:59:12;;;;;;;13.30;2.83;;;;;;;4.46;82.46;102518.47;5114729;28;20430;-56
2023/03/04 03:01:37;;;;;;;13.85;2.83;;;;;;;4.47;82.45;102522.00;5114344;28;20115;-57
2023/03/04 03:04:03;;;;;;;16.08;2.50;;;;;;;4.47;82.66;102516.75;5115149;28;20043;-57
2023/03/04 03:06:28;;;;;;;12.90;2.95;;;;;;;4.47;82.53;102516.75;5114005;28;20121;-57
2023/03/04 03:08:53;;;;;;;13.77;3.00;;;;;;;4.46;82.65;102521.13;5114624;28;20035;-56
2023/03/04 03:11:18;;;;;;;17.85;3.10;;;;;;;4.47;83.07;102522.00;5098560;28;20023;-56
2023/03/04 03:13:44;;;;;;;18.60;3.30;;;;;;;4.46;82.80;102515.84;5115441;28;20032;-55
2023/03/04 03:16:09;;;;;;;15.85;3.25;;;;;;;4.46;82.88;102518.47;5115639;27;20035;-56
2023/03/04 03:18:34;;;;;;;20.00;3.53;;;;;;;4.45;82.52;102515.00;5109376;27;20024;-57
2023/03/04 03:20:59;;;;;;;18.50;3.22;;;;;;;4.45;83.26;102514.16;5114640;27;20031;-57
2023/03/04 03:23:25;;;;;;;12.93;3.35;;;;;;;4.45;83.36;102509.72;5109338;27;20477;-56
2023/03/04 03:25:50;;;;;;;17.38;3.17;;;;;;;4.44;83.31;102510.63;5115212;27;20104;-53
2023/03/04 03:28:15;;;;;;;18.85;3.95;;;;;;;4.44;83.38;102508.00;5114427;27;20031;-54
2023/03/04 03:30:41;;;;;;;16.17;2.92;;;;;;;4.45;83.44;102506.25;5114844;27;20022;-56
2023/03/04 03:33:06;;;;;;;15.02;3.38;;;;;;;4.45;83.33;102508.88;5116312;27;20028;-56
2023/03/04 03:35:31;;;;;;;16.40;2.88;;;;;;;4.45;83.38;102506.25;5112941;28;20460;-55
2023/03/04 03:37:56;;;;;;;15.32;2.85;;;;;;;4.46;83.58;102505.31;5097174;27;20034;-56
2023/03/04 03:40:22;;;;;;;16.92;2.95;;;;;;;4.46;84.06;102505.31;5114479;27;20096;-55
2023/03/04 03:42:47;;;;;;;12.38;2.90;;;;;;;4.45;83.66;102503.63;5116585;27;20015;-55
2023/03/04 03:45:12;;;;;;;12.13;3.13;;;;;;;4.45;83.77;102496.56;5114381;27;20024;-55
2023/03/04 03:47:38;;;;;;;14.25;2.80;;;;;;;4.45;83.87;102496.56;5113887;27;20027;-57
2023/03/04 03:50:04;;;;;;;17.80;3.42;;;;;;;4.45;84.19;102507.09;5114534;27;20056;-56
2023/03/04 03:52:29;;;;;;;22.48;4.53;;;;;;;4.44;83.96;102502.72;5113953;27;20031;-57
2023/03/04 03:54:54;;;;;;;11.75;3.33;;;;;;;4.45;84.25;102503.63;5110412;28;20036;-54
2023/03/04 03:57:19;;;;;;;12.23;2.78;;;;;;;4.43;83.70;102502.81;5102635;28;20095;-55
2023/03/04 03:59:45;;;;;;;10.77;2.58;;;;;;;4.43;83.51;102505.44;5113719;28;20042;-57
2023/03/04 04:02:10;;;;;;;11.60;3.00;;;;;;;4.41;83.48;102500.19;5113561;27;20102;-57
2023/03/04 04:04:35;;;;;;;14.05;3.33;;;;;;;4.41;82.94;102500.19;5108208;28;20027;-56
2023/03/04 04:07:01;;;;;;;13.75;2.78;;;;;;;4.41;82.72;102505.47;5112726;28;20094;-57
2023/03/04 04:09:26;;;;;;;11.52;3.00;;;;;;;4.41;81.83;102499.31;5117313;27;20038;-56
2023/03/04 04:11:51;;;;;;;14.68;2.80;;;;;;;4.41;81.92;102508.09;5113246;27;20050;-56
2023/03/04 04:14:16;;;;;;;14.57;2.75;;;;;;;4.41;81.94;102502.84;5114738;27;20023;-57
2023/03/04 04:16:42;;;;;;;13.43;2.72;;;;;;;4.41;82.03;102501.94;5116668;27;20063;-55
2023/03/04 04:19:15;;;;;;;13.13;2.47;;;;;;;4.40;81.88;102501.09;5113995;27;20042;-56
2023/03/04 04:21:40;;;;;;;9.88;2.65;;;;;;;4.40;82.32;102508.97;5112047;27;20027;-57
2023/03/04 04:24:05;;;;;;;15.32;2.72;;;;;;;4.41;82.09;102507.22;5112245;27;20115;-56
2023/03/04 04:26:30;;;;;;;19.08;2.65;;;;;;;4.39;82.35;102501.97;5111263;27;20417;-55
2023/03/04 04:28:56;;;;;;;11.07;3.13;;;;;;;4.39;82.66;102501.13;5119289;27;20111;-56
2023/03/04 04:31:21;;;;;;;14.80;3.50;;;;;;;4.38;82.52;102502.91;5116243;27;20386;-57
2023/03/04 04:33:46;;;;;;;10.32;2.47;;;;;;;4.39;82.24;102501.13;5115800;27;20160;-56
2023/03/04 04:36:14;;;;;;;17.65;3.25;;;;;;;4.38;82.67;102507.28;5112844;28;20081;-56
2023/03/04 04:38:39;;;;;;;16.75;3.72;;;;;;;4.38;82.39;102508.16;5112251;27;20031;-56
2023/03/04 04:41:05;;;;;;;11.07;2.83;;;;;;;4.38;82.22;102509.91;5112773;28;20043;-58
2023/03/04 04:43:30;;;;;;;10.63;3.35;;;;;;;4.38;82.21;102510.78;5116808;27;20048;-53
2023/03/04 04:45:58;;;;;;;14.30;3.10;;;;;;;4.38;82.41;102509.91;5112364;28;20038;-58
2023/03/04 04:48:24;;;;;;;16.30;2.90;;;;;;;4.37;82.42;102511.69;5112464;28;20099;-56
2023/03/04 04:50:54;;;;;;;15.02;2.85;;;;;;;4.38;82.39;102513.44;5112794;27;20038;-57
2023/03/04 04:53:20;;;;;;;11.20;2.92;;;;;;;4.37;82.02;102518.72;5116748;27;20095;-57
2023/03/04 04:55:45;;;;;;;19.13;3.63;;;;;;;4.36;82.28;102517.84;5113595;27;20118;-57
2023/03/04 04:58:10;;;;;;;12.68;2.75;;;;;;;4.35;82.20;102512.63;5114252;27;20491;-57
2023/03/04 05:00:36;;;;;;;10.77;3.00;;;;;;;4.35;82.31;102521.38;5112396;28;20035;-56
2023/03/04 05:03:01;;;;;;;12.43;2.63;;;;;;;4.34;82.49;102514.38;5098377;28;20026;-58
2023/03/04 05:05:26;;;;;;;9.75;2.53;;;;;;;4.34;82.44;102519.63;5110546;27;20024;-56
2023/03/04 05:07:51;;;;;;;9.98;2.35;;;;;;;4.36;82.18;102519.59;5114927;27;20031;-57
2023/03/04 05:10:17;;;;;;;9.70;2.38;;;;;;;4.35;82.46;102512.63;5091869;28;20118;-58
2023/03/04 05:12:43;;;;;;;12.95;2.97;;;;;;;4.34;82.54;102514.38;5113838;27;20092;-57
2023/03/04 05:15:09;;;;;;;18.60;3.97;;;;;;;4.34;82.31;102516.16;5115794;27;20043;-57
2023/03/04 05:17:34;;;;;;;16.27;2.80;;;;;;;4.34;82.24;102514.38;5115861;27;20024;-56
2023/03/04 05:20:00;;;;;;;18.02;3.17;;;;;;;4.33;82.30;102517.94;5112130;28;20051;-56
2023/03/04 05:22:25;;;;;;;12.45;2.97;;;;;;;4.34;82.54;102517.00;5100579;28;20103;-56
2023/03/04 05:24:50;;;;;;;12.40;3.22;;;;;;;4.34;82.51;102513.53;5112889;27;20102;-56
2023/03/04 05:27:15;;;;;;;11.27;2.83;;;;;;;4.34;82.50;102510.91;5110041;28;20431;-59
2023/03/04 05:29:43;;;;;;;12.90;2.85;;;;;;;4.32;82.47;102507.44;5112075;28;20024;-60
2023/03/04 05:32:09;;;;;;;13.70;3.03;;;;;;;4.33;82.89;102512.66;5112202;28;20019;-57
2023/03/04 05:34:34;;;;;;;14.50;2.88;;;;;;;4.32;82.52;102516.19;5117063;27;20084;-56
2023/03/04 05:36:59;;;;;;;15.85;3.15;;;;;;;4.33;82.58;102514.41;5114884;28;20123;-56
2023/03/04 05:39:24;;;;;;;12.63;2.70;;;;;;;4.32;82.52;102513.56;5112691;28;20039;-56
2023/03/04 05:41:50;;;;;;;14.57;3.33;;;;;;;4.32;82.33;102513.56;5112004;28;20035;-56
2023/03/04 05:44:15;;;;;;;12.80;2.90;;;;;;;4.31;81.73;102514.44;5111650;28;20024;-56
2023/03/04 05:46:40;;;;;;;10.02;2.42;;;;;;;4.32;82.04;102512.69;5112745;28;20024;-56
2023/03/04 05:49:06;;;;;;;8.85;2.58;;;;;;;4.33;81.97;102517.03;5095562;28;20367;-56
2023/03/04 05:51:31;;;;;;;11.80;2.70;;;;;;;4.31;81.64;102522.34;5108905;28;20024;-53
2023/03/04 05:53:56;;;;;;;8.85;2.35;;;;;;;4.32;81.98;102518.81;5114910;28;20112;-54
2023/03/04 05:56:22;;;;;;;14.75;3.13;;;;;;;4.32;82.26;102523.22;5112144;28;20049;-56
2023/03/04 05:58:47;;;;;;;10.20;2.40;;;;;;;4.32;82.27;102520.59;5111585;28;20019;-57
2023/03/04 06:01:13;;;;;;;13.20;2.88;;;;;;;4.31;82.32;102524.97;5109515;28;20035;-55
2023/03/04 06:03:38;;;;;;;11.18;2.63;;;;;;;4.30;82.67;102522.38;5111815;28;20023;-57
2023/03/04 06:06:04;;;;;;;12.55;2.35;;;;;;;4.31;82.39;102521.47;5111775;28;20424;-57
2023/03/04 06:08:30;;;;;;;11.30;2.58;;;;;;;4.31;82.40;102527.59;5111754;28;20034;-56
2023/03/04 06:10:56;;;;;;;12.65;2.72;;;;;;;4.30;83.19;102523.25;5111645;28;20032;-56
2023/03/04 06:13:22;;;;;;;12.85;2.70;;;;;;;4.31;83.79;102524.13;5106002;28;20048;-56
2023/03/04 06:15:52;;;;;;;14.98;3.58;;;;;;;4.29;84.46;102532.03;5111632;28;20135;-61
2023/03/04 06:18:18;;;;;;;10.52;2.47;;;;;;;4.30;84.69;102522.38;5115820;27;20076;-57
2023/03/04 06:20:44;;;;;;;11.98;3.20;;;;;;;4.30;84.87;102525.00;5104679;28;20051;-56
2023/03/04 06:23:09;;;;;;;13.52;2.75;;;;;;;4.29;85.06;102532.03;5115988;27;20024;-54
2023/03/04 06:25:35;;;;;;;11.10;2.83;;;;;;;4.28;84.66;102529.44;5115717;27;20034;-54
2023/03/04 06:28:00;;;;;;;14.25;2.75;;;;;;;4.27;84.66;102533.84;5115495;28;20036;-53
2023/03/04 06:30:26;;;;;;;10.30;2.28;;;;;;;4.28;85.37;102534.69;5115051;27;20043;-56
2023/03/04 06:32:51;;;;;;;10.18;2.50;;;;;;;4.28;86.02;102538.22;5115781;27;20028;-54
2023/03/04 06:35:16;;;;;;;8.98;2.70;;;;;;;4.26;87.03;102535.63;5110420;27;20036;-54
2023/03/04 06:37:42;;;;;;;8.50;2.28;;;;;;;4.25;87.97;102533.03;5113368;28;20420;-56
2023/03/04 06:40:09;;;;;;;8.77;2.33;;;;;;;4.24;88.12;102532.13;5109097;28;20103;-58
2023/03/04 06:42:36;;;;;;;10.20;2.38;;;;;;;4.25;88.12;102540.91;5115840;28;20426;-56
2023/03/04 06:45:03;;;;;;;12.52;2.65;;;;;;;4.25;88.37;102547.03;5111225;28;20032;-57
2023/03/04 06:47:28;;;;;;;9.23;2.60;;;;;;;4.24;88.33;102540.03;5105786;28;20028;-57
2023/03/04 06:49:54;;;;;;;12.07;2.40;;;;;;;4.25;87.93;102540.91;5111931;27;20547;-57
2023/03/04 06:52:19;;;;;;;13.55;2.67;;;;;;;4.23;88.23;102546.22;5115929;28;20032;-57
2023/03/04 06:54:44;;;;;;;12.35;2.90;;;;;;;4.24;88.19;102547.91;5093938;28;20084;-58
2023/03/04 06:57:10;;;;;;;12.02;2.97;;;;;;;4.25;87.76;102554.06;5115931;28;20066;-57
2023/03/04 06:59:35;;;;;;;9.93;2.63;;;;;;;4.25;87.68;102549.66;5115532;28;20380;-57
2023/03/04 07:02:00;;;;;;;9.60;2.55;;;;;;;4.25;87.54;102547.03;5115400;28;20040;-56
2023/03/04 07:04:26;;;;;;;12.38;3.10;;;;;;;4.27;87.49;102554.88;5112661;28;20028;-58
2023/03/04 07:06:51;;;;;;;10.70;2.97;;;;;;;4.28;88.00;102554.00;5108132;28;20024;-57
2023/03/04 07:09:17;;;;;;;9.65;3.10;;;;;;;4.29;88.06;102553.09;5109072;28;20070;-56
2023/03/04 07:11:43;;;;;;;10.18;2.78;;;;;;;4.29;87.99;102546.97;5112659;27;20036;-57
2023/03/04 07:14:09;;;;;;;14.38;2.80;;;;;;;4.30;88.45;102553.94;5110200;28;20032;-57
2023/03/04 07:16:34;;;;;;;8.75;2.42;;;;;;;4.31;88.44;102545.16;5111621;28;20031;-57
2023/03/04 07:19:00;;;;;;;18.02;3.10;;;;;;;4.31;88.30;102559.16;5110998;28;20343;-57
2023/03/04 07:21:25;;;;;;;15.30;3.35;;;;;;;4.34;88.46;102561.72;5113275;28;20412;-55
2023/03/04 07:23:50;;;;;;;10.98;2.70;;;;;;;4.36;88.75;102556.44;5115140;28;20042;-57
2023/03/04 07:26:16;;;;;;;8.95;3.00;;;;;;;4.37;88.59;102561.66;5115046;27;20469;-56
2023/03/04 07:28:42;;;;;;;7.70;2.85;;;;;;;4.39;88.91;102567.75;5108599;28;20024;-59
2023/03/04 07:31:20;;;;;;;10.98;2.80;;;;;;;4.40;89.44;102566.00;5112700;27;20180;-58
2023/03/04 07:33:45;;;;;;;12.10;3.25;;;;;;;4.45;89.30;102567.63;5108613;28;20435;-58
2023/03/04 07:36:13;;;;;;;11.15;3.13;;;;;;;4.47;89.84;102570.22;5111426;28;20106;-57
2023/03/04 07:38:41;;;;;;;8.50;3.03;;;;;;;4.50;89.60;102588.56;5111326;28;20115;-57
2023/03/04 07:41:07;;;;;;;9.88;3.30;;;;;;;4.53;90.31;102574.47;5112917;27;20035;-57
2023/03/04 07:43:32;;;;;;;9.07;2.90;;;;;;;4.56;90.23;102579.66;5114050;27;20369;-58
2023/03/04 07:46:00;;;;;;;13.70;2.90;;;;;;;4.58;90.24;102581.38;5111129;27;20051;-58
2023/03/04 07:48:26;;;;;;;9.55;3.25;;;;;;;4.61;90.39;102586.56;5112126;28;20042;-57
2023/03/04 07:51:09;;;;;;;11.25;3.13;;;;;;;4.64;90.05;102590.88;5110563;28;20040;-55
2023/03/04 07:53:35;;;;;;;13.68;3.10;;;;;;;4.67;90.19;102590.78;5110993;27;20084;-57
2023/03/04 07:56:01;;;;;;;10.73;2.95;;;;;;;4.67;89.95;102593.44;5111600;27;20040;-58
2023/03/04 07:58:26;;;;;;;14.70;3.38;;;;;;;4.69;90.31;102594.25;5112851;27;20023;-57
2023/03/04 08:00:52;;;;;;;11.60;2.83;;;;;;;4.70;90.31;102590.72;5108835;28;20035;-57
2023/03/04 08:03:17;;;;;;;9.15;3.00;;;;;;;4.73;90.24;102589.78;5111808;28;20027;-57
2023/03/04 08:05:42;;;;;;;8.65;3.13;;;;;;;4.75;90.13;102588.84;5112951;27;20043;-58
2023/03/04 08:08:08;;;;;;;13.93;3.15;;;;;;;4.77;90.07;102594.94;5114932;27;20161;-57
2023/03/04 08:10:39;;;;;;;11.48;2.95;;;;;;;4.80;90.18;102592.22;5122106;27;20466;-58
2023/03/04 08:13:06;;;;;;;16.83;3.08;;;;;;;4.80;90.14;102594.00;5110937;28;20110;-57
2023/03/04 08:15:32;;;;;;;10.07;2.88;;;;;;;4.85;90.16;102592.13;5113910;27;20181;-57
2023/03/04 08:17:57;;;;;;;8.93;2.85;;;;;;;4.86;90.47;102591.22;5113007;28;20055;-56
2023/03/04 08:20:23;;;;;;;11.77;3.15;;;;;;;4.87;91.08;102592.09;5112900;27;20525;-57
2023/03/04 08:22:49;;;;;;;9.90;2.97;;;;;;;4.90;91.36;102590.25;5108253;28;20169;-58
2023/03/04 08:25:15;;;;;;;12.25;3.20;;;;;;;4.93;91.20;102599.81;5108547;28;20052;-57
2023/03/04 08:27:40;;;;;;;9.38;2.45;;;;;;;4.95;90.90;102600.66;5111831;28;20019;-56
2023/03/04 08:30:06;;;;;;;10.55;3.10;;;;;;;4.97;91.08;102598.84;5113113;27;20038;-58
2023/03/04 08:32:32;;;;;;;13.45;3.30;;;;;;;5.00;91.65;102602.28;5109505;28;20483;-56
2023/03/04 08:34:57;;;;;;;14.05;3.50;;;;;;;5.03;91.37;102597.81;5111845;28;20020;-57
2023/03/04 08:37:22;;;;;;;8.13;3.03;;;;;;;5.05;91.50;102589.00;5109482;28;20026;-57
2023/03/04 08:39:48;;;;;;;16.30;2.97;;;;;;;5.11;91.69;102595.88;5102617;28;20498;-57
2023/03/04 08:42:14;;;;;;;14.00;3.28;;;;;;;5.16;91.97;102599.25;5111554;27;20043;-56
2023/03/04 08:44:40;;;;;;;10.30;3.30;;;;;;;5.23;92.34;102594.69;5113185;28;20039;-55
2023/03/04 08:47:08;;;;;;;14.90;3.40;;;;;;;5.28;91.73;102598.94;5109006;28;20047;-57
2023/03/04 08:49:33;;;;;;;12.60;3.28;;;;;;;5.32;91.64;102591.81;5109033;27;20091;-57
2023/03/04 08:51:58;;;;;;;9.63;3.38;;;;;;;5.37;91.08;102590.78;5104254;28;20050;-57
2023/03/04 08:54:23;;;;;;;14.48;3.45;;;;;;;5.52;91.71;102596.56;5105410;27;20031;-57
2023/03/04 08:56:49;;;;;;;10.13;3.42;;;;;;;5.71;91.50;102586.34;5093776;28;20542;-57
2023/03/04 08:59:14;;;;;;;11.80;3.35;;;;;;;5.83;90.38;102590.41;5098854;28;20046;-56
2023/03/04 09:01:40;;;;;;;15.07;3.50;;;;;;;5.94;90.22;102588.34;5098694;28;20506;-57
2023/03/04 09:04:05;;;;;;;13.23;3.72;;;;;;;6.04;89.53;102589.81;5105168;28;20036;-56
2023/03/04 09:06:30;;;;;;;13.68;3.45;;;;;;;6.14;89.27;102582.50;5110456;28;20039;-56
2023/03/04 09:08:55;;;;;;;12.35;3.50;;;;;;;6.26;89.43;102584.78;5109041;28;20458;-57
2023/03/04 09:11:21;;;;;;;8.88;2.55;;;;;;;6.35;87.97;102583.63;5093713;28;20031;-58
2023/03/04 09:13:46;;;;;;;10.13;2.75;;;;;;;6.41;87.20;102579.94;5111227;28;20026;-57
2023/03/04 09:16:13;;;;;;;8.85;2.83;;;;;;;6.47;86.51;102588.53;5103590;28;20031;-56
2023/03/04 09:18:40;;;;;;;10.98;3.08;;;;;;;6.57;87.45;102569.75;5098268;28;20058;-58
2023/03/04 09:21:07;;;;;;;6.75;2.88;;;;;;;6.61;85.89;102569.63;5105000;27;20040;-54
2023/03/04 09:23:32;;;;;;;8.82;3.28;;;;;;;6.66;85.12;102572.09;5103199;28;20032;-57
2023/03/04 09:25:58;;;;;;;12.90;3.10;;;;;;;6.71;84.84;102575.47;5104826;28;20055;-58
2023/03/04 09:28:23;;;;;;;10.43;3.10;;;;;;;6.83;84.69;102569.78;5110224;28;20059;-57
2023/03/04 09:30:48;;;;;;;9.32;2.58;;;;;;;6.93;83.68;102572.09;5109481;28;20047;-56
2023/03/04 09:33:14;;;;;;;12.23;2.63;;;;;;;6.99;83.21;102571.91;5107447;28;20031;-57
2023/03/04 09:35:39;;;;;;;7.47;2.10;;;;;;;6.99;82.51;102572.75;5110792;28;20043;-56
2023/03/04 09:38:04;;;;;;;10.18;2.40;;;;;;;7.03;82.29;102557.69;5091358;28;20363;-57
2023/03/04 09:40:48;;;;;;;7.45;2.17;;;;;;;7.15;82.77;102559.03;5106559;28;20074;-55
2023/03/04 09:43:21;;;;;;;11.10;2.28;;;;;;;7.27;82.39;102565.69;5107925;28;20027;-58
2023/03/04 09:45:50;;;;;;;7.45;2.10;;;;;;;7.38;82.65;102569.66;5110656;28;20128;-56
2023/03/04 09:48:20;;;;;;;10.35;1.90;;;;;;;7.43;81.37;102569.50;5106805;28;20038;-56
2023/03/04 09:51:23;;;;;;;6.57;1.73;;;;;;;7.59;81.82;102560.09;5109810;28;20046;-58
2023/03/04 09:54:04;;;;;;;3.08;1.40;;;;;;;7.69;80.02;102562.41;5114090;28;20036;-58
2023/03/04 09:56:34;;;;;;;6.25;1.80;;;;;;;7.75;79.42;102560.38;5109148;27;20031;-58
2023/03/04 09:59:13;;;;;;;4.38;1.70;;;;;;;7.88;79.61;102563.44;5114877;27;20020;-57
2023/03/04 10:01:48;;;;;;;4.97;1.63;;;;;;;7.95;79.22;102564.94;5111584;27;20063;-57
2023/03/04 10:04:13;;;;;;;9.07;1.80;;;;;;;7.98;77.73;102558.69;5110568;27;20080;-57
2023/03/04 10:06:41;;;;;;;7.75;1.90;;;;;;;8.02;78.45;102562.06;5105533;27;20047;-57
2023/03/04 10:09:14;;;;;;;9.90;2.35;;;;;;;8.08;77.82;102556.53;5114364;27;20027;-56
2023/03/04 10:11:42;;;;;;;8.95;1.98;;;;;;;8.08;76.68;102564.47;5113767;28;20039;-57
2023/03/04 10:14:20;;;;;;;4.50;2.00;;;;;;;8.11;77.43;102559.94;5113106;28;20035;-56
2023/03/04 10:16:51;;;;;;;4.30;1.90;;;;;;;8.21;77.91;102559.56;5114529;27;20043;-58
2023/03/04 10:19:50;;;;;;;9.35;2.33;;;;;;;8.29;77.90;102566.28;5112669;27;20051;-57
2023/03/04 10:22:19;;;;;;;;;;;;;;;8.45;78.92;102557.78;5092232;28;20115;-56
2023/03/04 10:24:46;;;;;;;7.70;2.10;;;;;;;8.46;75.97;102544.47;5114847;27;19920;-56
2023/03/04 10:27:16;;;;;;;6.43;1.80;;;;;;;8.58;75.62;102544.91;5114648;28;20036;-55
2023/03/04 10:29:41;;;;;;;5.18;1.80;;;;;;;8.77;74.83;102547.63;5112863;27;20032;-57
2023/03/04 10:32:13;;;;;;;5.60;1.95;;;;;;;8.91;73.99;102539.97;5114410;27;20477;-56
2023/03/04 10:34:38;;;;;;;9.13;1.90;;;;;;;8.97;72.49;102542.34;5102125;28;20105;-56
2023/03/04 10:37:06;;;;;;;3.45;1.63;;;;;;;8.98;71.80;102546.72;5110328;28;20044;-56
2023/03/04 10:39:40;;;;;;;2.95;1.30;;;;;;;9.01;71.48;102537.78;5107196;28;20051;-56
2023/03/04 10:42:14;;;;;;;6.72;1.67;;;;;;;8.99;72.01;102540.53;5111488;28;20039;-57
2023/03/04 10:44:55;;;;;;;5.50;2.10;;;;;;;8.97;73.00;102539.69;5107085;28;20023;-55
2023/03/04 10:47:24;;;;;;;6.45;1.60;;;;;;;8.92;72.37;102538.19;5111601;28;20546;-56
2023/03/04 10:49:55;;;;;;;6.82;1.73;;;;;;;8.88;71.98;102527.72;5106109;27;20055;-55
2023/03/04 10:52:45;;;;;;;4.95;2.00;;;;;;;8.87;73.67;102533.06;5111148;28;20055;-55
2023/03/04 10:55:16;;;;;;;8.00;2.45;;;;;;;8.79;72.74;102528.13;5112122;28;20035;-55
2023/03/04 10:57:46;;;;;;;6.00;1.90;;;;;;;8.80;72.89;102536.91;5106764;27;20452;-57
2023/03/04 11:00:35;;;;;;;3.92;2.00;;;;;;;8.85;73.75;102534.94;5113298;28;20034;-56
2023/03/04 11:03:19;;;;;;;8.23;1.90;;;;;;;8.80;73.34;102534.28;5108794;28;20438;-56
2023/03/04 11:05:44;;;;;;;5.45;1.65;;;;;;;8.70;72.63;102526.69;5115247;27;20027;-54
2023/03/04 11:08:17;;;;;;;6.35;2.20;;;;;;;8.74;73.18;102531.88;5097883;27;20484;-54
2023/03/04 11:10:42;;;;;;;6.80;2.10;;;;;;;8.77;73.65;102532.59;5114194;27;20488;-55
2023/03/04 11:13:19;;;;;;;7.75;1.90;;;;;;;8.77;73.92;102527.28;5114706;28;20176;-55
2023/03/04 11:15:54;;;;;;;8.18;1.52;;;;;;;8.69;74.00;102525.00;5102926;28;20515;-56
2023/03/04 11:18:42;;;;;;;5.43;1.85;;;;;;;8.63;74.63;102529.69;5113424;27;20028;-57
2023/03/04 11:21:16;;;;;;;2.47;2.05;;;;;;;8.57;75.25;102522.81;5095182;28;20463;-55
2023/03/04 11:24:03;;;;;;;5.50;2.10;;;;;;;8.57;75.60;102521.97;5112153;28;20385;-57
2023/03/04 11:26:39;;;;;;;4.20;2.17;;;;;;;8.52;76.38;102520.34;5110735;28;20040;-59
2023/03/04 11:29:14;;;;;;;9.85;2.80;;;;;;;8.52;77.07;102512.41;5112637;28;20046;-54